Latest Weather Observations for Lady Elliot Island

IDQ60801

Issued at 7:42 am EST Tuesday 27 October 2020 (issued every 10 minutes, with the page automatically refreshed every 10 minutes)

About weather observations | Map of weather stations | Latest weather observations for QLD | Other Formats
Station Details ID: 039059 Name: LADY ELLIOT ISLAND Lat: -24.11 Lon: 152.72 Height: 3.6 m
Data from the previous 72 hours. | See also: Recent months at Lady Elliot Island
Date/Time
EST
Temp
°C
App
Temp
°C
Dew
Point
°C
Rel
Hum
%
Delta-T
°C
Wind Press
QNH
hPa
Press
MSL
hPa
Rain since
9am
mm
Dir  Spd
km/h
Gust
km/h
Spd
kts
Gust
kts
27/07:30am 24.4 29.1 23.4 94 0.7 NE 4 7 2 4 1014.3 1014.3 -
27/07:00am 24.3 29.4 23.3 94 0.7 NNE 2 7 1 4 1014.0 1014.0 -
27/06:30am 24.2 29.3 23.3 95 0.6 NE 2 7 1 4 1013.6 1013.6 -
27/06:00am 23.9 27.5 23.0 95 0.6 NNE 9 11 5 6 1012.7 1012.7 -
27/05:30am 23.8 27.9 23.0 95 0.5 N 6 9 3 5 1012.8 1012.8 -
27/05:00am 23.7 27.8 22.9 95 0.5 NNE 6 9 3 5 1012.3 1012.3 -
27/04:30am 23.6 28.0 22.8 95 0.5 NNE 4 7 2 4 1012.2 1012.2 -
27/04:00am 23.7 27.8 22.9 95 0.5 N 6 7 3 4 1012.0 1012.0 -
27/03:30am 23.8 27.7 23.0 95 0.5 N 7 9 4 5 1012.0 1012.0 -
27/03:00am 23.7 27.6 22.9 95 0.5 N 7 11 4 6 1011.5 1011.5 0.0
27/02:30am 23.8 27.0 23.0 95 0.5 N 11 15 6 8 1011.6 1011.6 -
27/02:00am 23.8 25.8 23.0 95 0.5 N 17 19 9 10 1011.7 1011.7 -
27/01:30am 23.9 27.5 23.0 95 0.6 NW 9 13 5 7 1012.4 1012.4 -
27/01:00am 23.8 27.4 23.0 95 0.5 NNW 9 13 5 7 1012.4 1012.4 -
27/12:30am 23.9 26.7 23.0 95 0.6 N 13 15 7 8 1012.5 1012.5 -
27/12:00am 23.9 26.7 23.0 95 0.6 N 13 15 7 8 1012.9 1012.9 -
 
Date/Time
EST
Temp
°C
App
Temp
°C
Dew
Point
°C
Rel
Hum
%
Delta-T
°C
Wind Press
QNH
hPa
Press
MSL
hPa
Rain since
9am
mm
Dir  Spd
km/h
Gust
km/h
Spd
kts
Gust
kts
26/11:30pm 23.8 27.5 22.6 93 0.8 N 7 9 4 5 1013.1 1013.1 -
26/11:00pm 24.0 27.5 22.8 93 0.8 N 9 11 5 6 1013.0 1013.0 -
26/10:30pm 24.0 27.8 22.8 93 0.8 NNW 7 11 4 6 1013.3 1013.3 -
26/10:00pm 24.1 27.2 22.9 93 0.8 N 11 15 6 8 1013.3 1013.3 -
26/09:30pm 24.2 26.5 22.8 92 0.9 NNW 15 17 8 9 1013.3 1013.3 -
26/09:00pm 24.2 27.3 22.8 92 0.9 NNW 11 15 6 8 1013.4 1013.4 0.0
26/08:30pm 24.3 25.2 22.7 91 1.1 NNW 22 28 12 15 1012.9 1012.9 -
26/08:00pm 24.2 24.3 22.6 91 1.1 N 26 32 14 17 1012.7 1012.7 -
26/07:30pm 24.3 26.1 22.6 90 1.1 N 17 20 9 11 1012.0 1012.0 -
26/07:00pm 24.3 26.1 22.6 90 1.1 N 17 24 9 13 1011.4 1011.4 -
26/06:30pm 24.3 26.4 22.4 89 1.3 N 15 20 8 11 1011.2 1011.2 -
26/06:00pm 24.3 26.7 22.2 88 1.4 N 13 20 7 11 1010.9 1010.9 -
26/05:30pm 24.6 26.6 22.3 87 1.5 N 15 20 8 11 1010.6 1010.6 -
26/05:00pm 24.7 26.2 22.0 85 1.8 N 17 24 9 13 1010.4 1010.4 -
26/04:30pm 25.2 27.9 22.1 83 2.1 N 11 17 6 9 1010.2 1010.2 -
26/04:00pm 25.5 27.0 22.0 81 2.3 N 17 20 9 11 1010.1 1010.1 -
26/03:30pm 27.0 28.1 22.4 76 3.1 N 20 24 11 13 1009.8 1009.8 -
26/03:00pm 27.0 27.8 22.4 76 3.1 N 22 26 12 14 1009.9 1009.9 -
26/02:30pm 27.4 27.9 22.6 75 3.2 NNW 24 32 13 17 1010.1 1010.1 -
26/02:00pm 27.5 28.7 22.2 73 3.6 NNW 19 24 10 13 1010.5 1010.5 -
26/01:30pm 27.5 28.8 22.4 73 3.4 NNW 19 24 10 13 1011.0 1011.0 -
26/01:00pm 27.9 29.5 22.8 74 3.5 NNW 19 24 10 13 1011.1 1011.1 -
26/12:30pm 28.2 29.5 22.7 72 3.7 NNW 20 26 11 14 1011.0 1011.0 -
26/12:00pm 27.9 29.7 22.6 73 3.6 N 17 22 9 12 1010.9 1010.9 -
26/11:30am 27.8 29.2 22.5 73 3.6 N 19 22 10 12 1011.4 1011.4 -
26/11:00am 27.9 29.5 22.8 74 3.5 NNW 19 22 10 12 1012.0 1012.0 -
26/10:30am 27.9 29.8 22.8 74 3.5 N 17 20 9 11 1012.3 1012.3 -
26/10:00am 27.2 29.4 22.6 76 3.1 NNW 15 20 8 11 1012.7 1012.7 -
26/09:30am 26.9 29.2 22.7 78 2.8 NW 15 20 8 11 1012.9 1012.9 0.0
26/09:00am 27.7 30.3 23.3 77 3.0 NW 15 20 8 11 1012.8 1012.8 0.0
26/08:30am 27.2 30.0 23.7 81 2.4 NW 15 20 8 11 1012.7 1012.7 0.0
26/08:00am 26.6 29.1 23.1 81 2.4 N 15 19 8 10 1012.3 1012.3 0.0
26/07:30am 25.8 27.7 22.7 83 2.1 N 17 19 9 10 1012.1 1012.1 0.0
26/07:00am 25.1 26.5 22.6 86 1.7 N 19 22 10 12 1011.9 1011.9 0.0
26/06:30am 24.3 25.6 22.6 90 1.1 NNW 20 26 11 14 1011.8 1011.8 0.0
26/06:00am 23.8 25.2 22.8 94 0.7 N 20 22 11 12 1011.4 1011.4 0.0
26/05:30am 23.6 25.6 22.9 96 0.5 NNW 17 20 9 11 1011.0 1011.0 0.0
26/05:00am 23.7 26.1 23.0 96 0.5 N 15 19 8 10 1010.9 1010.9 0.0
26/04:30am 23.7 25.4 23.0 96 0.5 N 19 20 10 11 1010.7 1010.7 0.0
26/04:00am 23.6 25.2 22.9 96 0.5 N 19 22 10 12 1010.5 1010.5 0.0
26/03:30am 23.7 25.2 23.0 96 0.5 N 20 24 11 13 1010.4 1010.4 0.0
26/03:00am 23.8 25.9 23.1 96 0.5 N 17 20 9 11 1010.3 1010.3 0.0
26/02:30am 23.8 27.0 23.0 95 0.5 N 11 15 6 8 1010.1 1010.1 0.0
26/02:00am 23.8 27.4 23.0 95 0.5 N 9 13 5 7 1010.2 1010.2 0.0
26/01:30am 23.8 27.0 23.0 95 0.5 N 11 15 6 8 1010.4 1010.4 0.0
26/01:00am 23.7 26.8 22.9 95 0.5 N 11 15 6 8 1010.5 1010.5 0.0
26/12:30am 23.8 27.4 23.0 95 0.5 N 9 15 5 8 1011.1 1011.1 0.0
26/12:00am 23.7 27.2 22.9 95 0.5 N 9 13 5 7 1011.5 1011.5 0.0
 
Date/Time
EST
Temp
°C
App
Temp
°C
Dew
Point
°C
Rel
Hum
%
Delta-T
°C
Wind Press
QNH
hPa
Press
MSL
hPa
Rain since
9am
mm
Dir  Spd
km/h
Gust
km/h
Spd
kts
Gust
kts
25/11:30pm 23.6 26.7 22.8 95 0.5 N 11 13 6 7 1011.8 1011.8 0.0
25/11:00pm 23.7 27.1 22.7 94 0.7 N 9 11 5 6 1012.0 1012.0 0.0
25/10:30pm 23.7 27.1 22.7 94 0.7 N 9 13 5 7 1012.0 1012.0 0.0
25/10:00pm 23.8 26.9 22.8 94 0.7 N 11 17 6 9 1012.1 1012.1 0.0
25/09:30pm 23.8 26.4 22.6 93 0.8 N 13 20 7 11 1011.6 1011.6 0.0
25/09:00pm 23.9 26.5 22.7 93 0.8 NNE 13 20 7 11 1011.7 1011.7 0.0
25/08:30pm 23.9 26.8 22.5 92 0.9 N 11 19 6 10 1012.0 1012.0 0.0
25/08:00pm 23.9 27.2 22.5 92 0.9 NNE 9 15 5 8 1011.6 1011.6 0.0
25/07:30pm 24.0 26.9 22.4 91 1.1 NNE 11 17 6 9 1011.2 1011.2 0.0
25/07:00pm 24.1 26.6 22.4 90 1.1 N 13 20 7 11 1011.1 1011.1 0.0
25/06:30pm 24.1 26.8 22.2 89 1.3 N 11 19 6 10 1011.0 1011.0 0.0
25/06:00pm 24.3 27.4 22.2 88 1.4 NNE 9 15 5 8 1010.6 1010.6 0.0
25/05:30pm 24.8 26.9 22.5 87 1.5 N 15 20 8 11 1010.7 1010.7 0.0
25/05:00pm 25.0 27.5 22.5 86 1.7 N 13 17 7 9 1010.7 1010.7 0.0
25/04:30pm 25.4 27.9 22.5 84 1.9 N 13 20 7 11 1010.7 1010.7 0.0
25/04:00pm 25.0 28.7 22.5 86 1.7 N 7 13 4 7 1010.5 1010.5 0.0
25/03:30pm 25.4 27.2 22.5 84 1.9 N 17 19 9 10 1010.9 1010.9 0.0
25/03:00pm 26.0 27.8 22.5 81 2.4 N 17 19 9 10 1010.9 1010.9 0.0
25/02:30pm 25.8 27.1 22.3 81 2.3 N 19 20 10 11 1010.8 1010.8 0.0
25/02:00pm 26.0 27.8 22.5 81 2.4 N 17 20 9 11 1010.9 1010.9 0.0
25/01:30pm 26.1 26.8 22.2 79 2.6 N 22 26 12 14 1011.4 1011.4 0.0
25/01:00pm 27.8 29.2 22.5 73 3.6 N 19 24 10 13 1011.7 1011.7 0.0
25/12:30pm 28.2 29.1 22.7 72 3.7 N 22 26 12 14 1011.9 1011.9 0.0
25/12:00pm 27.8 28.2 22.5 73 3.6 N 24 30 13 16 1012.2 1012.2 0.0
25/11:30am 28.4 29.1 22.9 72 3.7 N 24 28 13 15 1012.4 1012.4 0.0
25/11:00am 27.9 28.4 22.6 73 3.6 N 24 28 13 15 1012.6 1012.6 0.0
25/10:30am 28.1 28.7 22.8 73 3.6 N 24 30 13 16 1012.8 1012.8 0.0
25/10:00am 27.5 27.0 22.2 73 3.6 N 28 32 15 17 1013.0 1013.0 0.0
25/09:30am 27.4 27.6 22.1 73 3.6 N 24 30 13 16 1013.1 1013.1 0.0
25/09:00am 26.9 27.5 22.1 75 3.2 N 22 26 12 14 1013.4 1013.4 0.0
25/08:30am 25.8 26.7 21.9 79 2.6 N 20 26 11 14 1013.1 1013.1 0.0
25/08:00am 26.5 26.7 22.1 77 3.0 N 24 28 13 15 1013.3 1013.3 0.0
25/07:30am 25.5 26.2 21.6 79 2.6 N 20 30 11 16 1013.1 1013.1 0.0
25/07:00am 25.1 25.9 21.4 80 2.4 N 19 24 10 13 1012.8 1012.8 0.0
25/06:30am 24.0 25.9 21.3 85 1.8 N 13 20 7 11 1012.3 1012.3 0.0
25/06:00am 23.7 25.6 21.4 87 1.5 N 13 22 7 12 1012.2 1012.2 0.0
25/05:30am 23.4 24.9 21.3 88 1.4 N 15 20 8 11 1011.8 1011.8 0.0
25/05:00am 23.3 23.8 21.2 88 1.4 N 20 24 11 13 1011.8 1011.8 0.0
25/04:30am 23.5 25.1 21.4 88 1.4 NNW 15 20 8 11 1012.0 1012.0 0.0
25/04:00am 23.6 24.8 21.5 88 1.4 NNW 17 22 9 12 1011.8 1011.8 0.0
25/03:30am 23.5 24.2 21.2 87 1.5 NNW 19 26 10 14 1011.7 1011.7 0.0
25/03:00am 23.4 23.0 20.9 86 1.6 NNW 24 30 13 16 1011.3 1011.3 0.0
25/02:30am 23.5 22.9 21.2 87 1.5 NNW 26 32 14 17 1011.4 1011.4 0.0
25/02:00am 23.4 23.9 20.9 86 1.6 N 19 24 10 13 1011.1 1011.1 0.0
25/01:30am 23.5 22.9 21.2 87 1.5 N 26 32 14 17 1011.5 1011.5 0.0
25/01:00am 23.4 22.7 21.1 87 1.5 N 26 32 14 17 1011.8 1011.8 0.0
25/12:30am 23.4 22.7 21.1 87 1.5 N 26 32 14 17 1011.7 1011.7 0.0
25/12:00am 23.4 24.0 21.1 87 1.5 N 19 28 10 15 1011.6 1011.6 0.0
 
Date/Time
EST
Temp
°C
App
Temp
°C
Dew
Point
°C
Rel
Hum
%
Delta-T
°C
Wind Press
QNH
hPa
Press
MSL
hPa
Rain since
9am
mm
Dir  Spd
km/h
Gust
km/h
Spd
kts
Gust
kts
24/11:30pm 23.6 23.9 21.5 88 1.4 N 22 32 12 17 1012.2 1012.2 0.0
24/11:00pm 23.5 24.7 21.4 88 1.4 N 17 26 9 14 1012.0 1012.0 0.0
24/10:30pm 23.5 24.7 21.4 88 1.4 N 17 24 9 13 1012.2 1012.2 0.0
24/10:00pm 23.4 24.9 21.3 88 1.4 N 15 24 8 13 1012.3 1012.3 0.0
24/09:30pm 23.5 25.1 21.4 88 1.4 N 15 24 8 13 1012.5 1012.5 0.0
24/09:00pm 23.6 24.7 21.3 87 1.5 N 17 24 9 13 1012.5 1012.5 0.0
24/08:30pm 23.7 24.4 21.2 86 1.6 N 19 28 10 15 1012.6 1012.6 0.0
24/08:00pm 23.8 24.9 21.3 86 1.6 N 17 24 9 13 1012.4 1012.4 0.0
24/07:30pm 23.8 24.5 21.5 87 1.5 N 20 26 11 14 1012.3 1012.3 0.0
24/07:00pm 23.8 24.8 21.7 88 1.4 NNE 19 30 10 16 1011.0 1011.0 0.0
24/06:30pm 23.9 25.2 21.6 87 1.5 NNE 17 28 9 15 1011.0 1011.0 0.0
24/06:00pm 23.9 25.2 21.6 87 1.5 NE 17 28 9 15 1010.3 1010.3 0.0
24/05:30pm 24.1 25.7 21.4 85 1.8 NNE 15 22 8 12 1011.2 1011.2 0.0
24/05:00pm 24.1 25.9 21.2 84 1.9 NNE 13 20 7 11 1011.2 1011.2 0.0
24/04:30pm 24.3 25.8 21.2 83 2.0 N 15 26 8 14 1011.5 1011.5 0.0
24/04:00pm 24.4 24.3 21.5 84 1.9 N 24 30 13 16 1011.9 1011.9 0.0
24/03:30pm 24.3 23.8 21.4 84 1.9 N 26 32 14 17 1012.0 1012.0 0.0
24/03:00pm 24.6 23.9 21.1 81 2.3 NNW 26 32 14 17 1012.1 1012.1 0.0
24/02:30pm 25.3 24.6 21.0 77 2.8 NNW 26 32 14 17 1012.3 1012.3 0.0
24/02:00pm 25.7 25.3 20.9 75 3.2 NNW 24 30 13 16 1012.5 1012.5 0.0
24/01:30pm 26.0 25.8 21.2 75 3.2 NNW 24 30 13 16 1012.7 1012.7 0.0
24/01:00pm 26.3 26.6 20.8 71 3.6 NNW 20 26 11 14 1012.8 1012.8 0.0
24/12:30pm 25.9 26.3 20.7 73 3.4 NNW 19 26 10 14 1013.3 1013.3 0.0
24/12:00pm 26.1 25.4 20.2 70 3.8 NNW 24 28 13 15 1013.5 1013.5 0.0
24/11:30am 27.5 28.5 21.8 71 3.8 N 19 26 10 14 1013.7 1013.7 0.0
24/11:00am 27.4 27.3 21.4 70 4.0 N 24 30 13 16 1014.2 1014.2 0.0
24/10:30am 26.8 26.0 20.9 70 3.9 N 26 32 14 17 1014.4 1014.4 0.0
24/10:00am 26.1 25.7 20.9 73 3.4 NNW 24 28 13 15 1014.8 1014.8 0.0
24/09:30am 26.4 25.6 20.9 72 3.6 N 26 30 14 16 1014.8 1014.8 0.0
24/09:00am 26.1 25.6 20.7 72 3.5 N 24 26 13 14 1014.8 1014.8 0.0
24/08:30am 26.1 25.7 20.9 73 3.4 N 24 28 13 15 1014.7 1014.7 0.0
24/08:00am 24.9 24.4 20.8 78 2.7 N 24 28 13 15 1014.8 1014.8 0.0

Other formats

Comma delimited format used in spreadsheet applications
http://www.bom.gov.au/fwo/IDQ60801/IDQ60801.94388.axf

JavaScript Object Notation format (JSON) in row-major order
http://www.bom.gov.au/fwo/IDQ60801/IDQ60801.94388.json

Data quality

Most of these data are generated automatically and are frequently updated. Quality checks on data are not normally performed. It is possible for incorrect values to appear. Refer to information at About Latest Weather Observations and please check the disclaimer before using these data.